createdAt,value
2022-08-17T00:03:14.656Z,99747.17
2022-08-17T00:08:20.611Z,99749.05
2022-08-17T00:13:33.524Z,99751.08
2022-08-17T00:19:06.744Z,99747.68
2022-08-17T00:23:57.806Z,99738.86
2022-08-17T00:29:00.098Z,99735.23
2022-08-17T00:34:03.257Z,99735.35
2022-08-17T00:39:05.346Z,99737.16
2022-08-17T00:44:08.226Z,99743.63
2022-08-17T00:49:11.866Z,99743.47
2022-08-17T00:54:23.024Z,99744.09
2022-08-17T00:59:30.560Z,99743.42
2022-08-17T01:04:33.164Z,99743.94
2022-08-17T01:09:35.300Z,99745.20
2022-08-17T01:14:38.847Z,99751.86
2022-08-17T01:19:41.776Z,99748.37
2022-08-17T01:24:59.373Z,99742.94
2022-08-17T01:30:06.686Z,99745.81
2022-08-17T01:35:29.546Z,99741.95
2022-08-17T01:40:38.654Z,99743.54
2022-08-17T01:45:45.309Z,99741.44
2022-08-17T01:50:49.605Z,99739.06
2022-08-17T01:55:54.814Z,99743.80
2022-08-17T02:01:01.043Z,99742.20
2022-08-17T02:06:05.782Z,99737.95
2022-08-17T02:11:28.135Z,99739.55
2022-08-17T02:16:37.889Z,99740.42
2022-08-17T02:21:42.084Z,99735.88
2022-08-17T02:26:46.404Z,99733.62
2022-08-17T02:31:48.405Z,99728.96
2022-08-17T02:36:52.576Z,99725.39
2022-08-17T02:42:02.391Z,99725.35
2022-08-17T02:47:04.616Z,99724.58
2022-08-17T02:52:07.410Z,99729.66
2022-08-17T02:57:10.596Z,99732.25
2022-08-17T03:02:12.495Z,99734.41
2022-08-17T03:07:15.603Z,99744.23
2022-08-17T03:12:17.550Z,99745.88
2022-08-17T03:17:19.420Z,99746.34
2022-08-17T03:22:36.600Z,99747.75
2022-08-17T03:27:41.991Z,99752.30
2022-08-17T03:32:47.348Z,99752.92
2022-08-17T03:38:00.383Z,99755.09
2022-08-17T03:43:08.565Z,99756.81
2022-08-17T03:48:29.139Z,99760.50
2022-08-17T03:53:49.709Z,99768.42
2022-08-17T03:58:51.529Z,99764.89
2022-08-17T04:03:53.445Z,99771.13
2022-08-17T04:08:55.711Z,99775.31
2022-08-17T04:13:57.514Z,99777.70
2022-08-17T04:18:59.711Z,99782.17
2022-08-17T04:24:02.235Z,99778.67
2022-08-17T04:29:04.849Z,99790.28
2022-08-17T04:34:06.816Z,99799.13
2022-08-17T04:39:08.638Z,99800.58
2022-08-17T04:44:11.843Z,99801.74
2022-08-17T04:49:13.778Z,99804.07
2022-08-17T04:54:20.124Z,99802.89
2022-08-17T04:59:22.380Z,99798.92
2022-08-17T05:04:33.950Z,99790.12
2022-08-17T05:09:40.758Z,99793.17
2022-08-17T05:14:42.810Z,99796.95
2022-08-17T05:19:51.757Z,99805.08
2022-08-17T05:25:07.702Z,99807.61
2022-08-17T05:30:25.334Z,99809.08
2022-08-17T05:35:43.673Z,99809.50
2022-08-17T05:40:56.463Z,99806.55
2022-08-17T05:46:22.450Z,99807.27
2022-08-17T05:51:38.807Z,99808.93
2022-08-17T05:57:03.822Z,99799.42
2022-08-17T06:02:26.770Z,99803.24
2022-08-17T06:07:44.869Z,99806.77
2022-08-17T06:13:05.503Z,99815.19
2022-08-17T06:18:09.795Z,99823.61
2022-08-17T06:23:17.745Z,99827.77
2022-08-17T06:28:34.062Z,99825.89
2022-08-17T06:33:37.759Z,99830.63
2022-08-17T06:38:53.199Z,99832.32
2022-08-17T06:44:02.185Z,99832.15
2022-08-17T06:49:25.535Z,99835.23
2022-08-17T06:54:38.283Z,99839.88
2022-08-17T06:59:55.362Z,99842.84
2022-08-17T07:05:01.431Z,99844.35
2022-08-17T07:10:03.811Z,99843.14
2022-08-17T07:15:13.285Z,99839.15
2022-08-17T07:20:20.218Z,99846.58
2022-08-17T07:25:22.665Z,99850.09
2022-08-17T07:30:26.227Z,99850.65
2022-08-17T07:35:44.269Z,99856.10
2022-08-17T07:41:06.031Z,99860.42
2022-08-17T07:46:29.632Z,99863.98
2022-08-17T07:51:35.285Z,99864.48
2022-08-17T07:56:47.773Z,99865.48
2022-08-17T08:02:03.682Z,99865.27
2022-08-17T08:07:29.967Z,99866.75
2022-08-17T08:12:46.487Z,99864.16
2022-08-17T08:17:53.996Z,99874.23
2022-08-17T08:23:10.287Z,99867.01
2022-08-17T08:28:27.054Z,99869.92
2022-08-17T08:33:49.299Z,99872.34
2022-08-17T08:39:03.666Z,99868.23
2022-08-17T08:44:21.766Z,99871.36
2022-08-17T08:50:06.948Z,99865.83
2022-08-17T08:55:36.373Z,99864.89
2022-08-17T09:00:43.780Z,99862.23
2022-08-17T09:05:48.818Z,99864.20
2022-08-17T09:11:05.254Z,99863.02
2022-08-17T09:16:29.297Z,99862.37
2022-08-17T09:21:52.342Z,99864.95
2022-08-17T09:27:06.276Z,99859.68
2022-08-17T09:32:37.856Z,99862.23
2022-08-17T09:38:13.281Z,99859.00
2022-08-17T09:43:46.602Z,99854.15
2022-08-17T09:49:14.632Z,99851.92
2022-08-17T09:54:45.592Z,99848.27
2022-08-17T10:00:08.018Z,99847.58
2022-08-17T10:05:32.510Z,99852.92
2022-08-17T10:10:56.683Z,99850.45
2022-08-17T10:16:24.008Z,99848.58
2022-08-17T10:21:45.534Z,99848.41
2022-08-17T10:26:56.364Z,99847.25
2022-08-17T10:32:04.613Z,99846.78
2022-08-17T10:37:21.979Z,99846.46
2022-08-17T10:42:37.397Z,99848.42
2022-08-17T10:48:06.046Z,99847.79
2022-08-17T10:53:28.188Z,99855.09
2022-08-17T10:58:56.400Z,99860.02
2022-08-17T11:04:19.375Z,99851.42
2022-08-17T11:09:59.655Z,99851.09
2022-08-17T11:15:01.796Z,99853.98
2022-08-17T11:20:11.110Z,99848.23
2022-08-17T11:25:22.264Z,99838.64
2022-08-17T11:31:08.859Z,99838.61
2022-08-17T11:36:33.908Z,99839.11
2022-08-17T11:41:48.462Z,99833.43
2022-08-17T11:47:37.409Z,99833.64
2022-08-17T11:52:41.011Z,99830.99
2022-08-17T11:57:59.533Z,99826.00
2022-08-17T12:03:22.544Z,99820.04
2022-08-17T12:08:27.489Z,99820.63
2022-08-17T12:13:38.565Z,99815.09
2022-08-17T12:18:49.691Z,99811.23
2022-08-17T12:24:14.227Z,99808.66
2022-08-17T12:29:35.981Z,99811.73
2022-08-17T12:34:42.294Z,99806.98
2022-08-17T12:39:57.157Z,99803.19
2022-08-17T12:44:59.185Z,99804.38
2022-08-17T12:50:29.596Z,99809.19
2022-08-17T12:55:37.355Z,99801.73
2022-08-17T13:00:40.939Z,99804.11
2022-08-17T13:06:07.552Z,99802.15
2022-08-17T13:11:23.822Z,99794.08
2022-08-17T13:16:30.042Z,99795.94
2022-08-17T13:21:33.635Z,99793.48
2022-08-17T13:26:56.886Z,99795.10
2022-08-17T13:32:13.200Z,99794.80
2022-08-17T13:37:28.575Z,99785.14
2022-08-17T13:42:50.374Z,99789.49
2022-08-17T13:48:19.967Z,99787.86
2022-08-17T13:53:44.786Z,99781.70
2022-08-17T13:59:52.577Z,99780.45
2022-08-17T14:04:46.445Z,99781.09
2022-08-17T14:09:51.575Z,99784.53
2022-08-17T14:14:55.878Z,99779.30
2022-08-17T14:19:58.726Z,99770.04
2022-08-17T14:25:03.926Z,99773.27
2022-08-17T14:30:07.707Z,99776.88
2022-08-17T14:35:12.297Z,99772.70
2022-08-17T14:40:16.116Z,99770.27
2022-08-17T14:45:29.607Z,99767.27
2022-08-17T14:50:43.038Z,99763.66
2022-08-17T14:55:45.585Z,99770.12
2022-08-17T15:00:53.447Z,99768.86
2022-08-17T15:05:55.791Z,99767.27
2022-08-17T15:10:58.267Z,99768.20
2022-08-17T15:16:00.345Z,99763.70
2022-08-17T15:21:04.610Z,99766.91
2022-08-17T15:26:07.244Z,99769.55
2022-08-17T15:31:09.356Z,99770.00
2022-08-17T15:36:11.388Z,99766.09
2022-08-17T15:41:17.856Z,99762.77
2022-08-17T15:46:22.943Z,99763.06
2022-08-17T15:51:39.541Z,99763.73
2022-08-17T15:56:41.600Z,99769.50
2022-08-17T16:02:29.903Z,99769.87
2022-08-17T16:07:06.750Z,99774.66
2022-08-17T16:12:34.095Z,99776.71
2022-08-17T16:17:40.310Z,99774.19
2022-08-17T16:22:45.464Z,99775.58
2022-08-17T16:27:50.038Z,99781.15
2022-08-17T16:33:00.706Z,99781.48
2022-08-17T16:38:10.079Z,99784.43
2022-08-17T16:43:14.255Z,99782.29
2022-08-17T16:48:16.693Z,99783.10
2022-08-17T16:53:18.949Z,99779.35
2022-08-17T16:58:21.275Z,99779.61
2022-08-17T17:03:26.117Z,99779.98
2022-08-17T17:08:38.449Z,99788.20
2022-08-17T17:13:54.546Z,99788.11
2022-08-17T17:19:11.527Z,99780.52
2022-08-17T17:24:18.505Z,99771.98
2022-08-17T17:29:47.906Z,99773.27
2022-08-17T17:34:55.721Z,99777.52
2022-08-17T17:40:09.054Z,99781.61
2022-08-17T17:45:31.871Z,99780.73
2022-08-17T17:51:03.270Z,99772.55
2022-08-17T17:56:44.182Z,99773.64
2022-08-17T18:02:02.562Z,99780.61
2022-08-17T18:07:23.060Z,99791.90
2022-08-17T18:12:35.366Z,99792.16
2022-08-17T18:18:30.760Z,99792.52
2022-08-17T18:23:39.632Z,99789.68
2022-08-17T18:28:53.919Z,99785.52
2022-08-17T18:34:43.865Z,99792.17
2022-08-17T18:39:46.981Z,99801.05
2022-08-17T18:44:54.341Z,99793.86
2022-08-17T18:50:20.503Z,99796.94
2022-08-17T18:55:30.473Z,99797.67
2022-08-17T19:00:45.353Z,99801.98
2022-08-17T19:06:24.542Z,99805.41
2022-08-17T19:11:32.742Z,99803.02
2022-08-17T19:16:35.159Z,99805.88
2022-08-17T19:21:47.536Z,99807.02
2022-08-17T19:27:34.933Z,99813.41
2022-08-17T19:32:44.978Z,99823.38
2022-08-17T19:38:13.291Z,99829.97
2022-08-17T19:43:30.710Z,99828.86
2022-08-17T19:48:48.122Z,99832.30
2022-08-17T19:54:15.693Z,99842.23
2022-08-17T19:59:46.175Z,99839.70
2022-08-17T20:04:52.807Z,99843.55
2022-08-17T20:10:18.229Z,99848.33
2022-08-17T20:15:29.685Z,99845.52
2022-08-17T20:20:47.224Z,99839.77
2022-08-17T20:26:04.767Z,99836.17
2022-08-17T20:31:42.483Z,99834.02
2022-08-17T20:37:22.778Z,99828.66
2022-08-17T20:42:27.517Z,99821.13
2022-08-17T20:47:55.176Z,99821.19
2022-08-17T20:53:05.005Z,99816.43
2022-08-17T20:58:17.276Z,99821.63
2022-08-17T21:03:22.494Z,99811.27
2022-08-17T21:08:30.968Z,99817.20
2022-08-17T21:13:46.381Z,99817.20
2022-08-17T21:19:49.003Z,99807.36
2022-08-17T21:25:13.432Z,99804.93
2022-08-17T21:30:26.613Z,99812.72
2022-08-17T21:35:58.645Z,99806.48
2022-08-17T21:41:01.485Z,99816.63
2022-08-17T21:46:23.393Z,99815.81
2022-08-17T21:51:29.517Z,99818.11
2022-08-17T21:56:37.702Z,99825.66
2022-08-17T22:01:51.356Z,99826.45
2022-08-17T22:06:59.137Z,99824.17
2022-08-17T22:12:14.495Z,99822.61
2022-08-17T22:17:19.032Z,99824.23
2022-08-17T22:22:26.026Z,99835.47
2022-08-17T22:27:53.984Z,99835.87
2022-08-17T22:33:01.259Z,99840.13
2022-08-17T22:38:18.538Z,99845.35
2022-08-17T22:43:25.892Z,99851.41
2022-08-17T22:48:29.164Z,99857.09
2022-08-17T22:53:49.749Z,99851.96
2022-08-17T22:59:16.595Z,99851.70
2022-08-17T23:04:37.799Z,99856.61
2022-08-17T23:09:40.205Z,99866.20
2022-08-17T23:14:46.209Z,99866.97
2022-08-17T23:19:48.140Z,99867.35
2022-08-17T23:24:50.084Z,99875.09
2022-08-17T23:29:52.196Z,99875.90
2022-08-17T23:34:55.010Z,99876.46
2022-08-17T23:39:57.054Z,99881.83
2022-08-17T23:44:59.071Z,99869.84
2022-08-17T23:50:05.100Z,99863.63
2022-08-17T23:55:08.097Z,99864.05
